Terminal Aerodrome Forecast
Issued by NWS

Home | Current Version | Previous Version | Text Only | Print | Product List | Glossary On
Versions: 1 2 3 4 5 6 7 8 9 10 11 12 13 14 15 16 17 18
000
FTUS42 KILM 301125
TAFCRE
TAF
KCRE 301125Z 3012/0112 04005KT 6SM BR SCT002 BKN018
      TEMPO 3012/3014 2SM BR BKN002
     FM301600 12008KT P6SM BKN025
     FM010300 14008KT P6SM OVC007
     FM010900 17008KT P6SM BKN012=

USA.gov is the U.S. government's official web portal to all federal, state and local government web resources and services.